Wednesday, June 20, 2018, 7:46 AM GMT
Back to Local

CYOW, Ottawa Int'L. Ont.

Location: , , Canada Lat: 45.317
Local Time: 7:46 AM GMT ( 7:46 GMT) Lon: -75.667
Time Zone: GMT Elev: 380 ft

Show me the last for .
Show Coded

Time T Td Feel RH Dir Speed Gust Alt SLP Vis Weather Sky Remarks
2018-06-20 07:00 54 50 - 87 230° 3 - 29.88 29.89 15 CLR None
2018-06-20 06:00 55 50 - 82 210° 5 - 29.90 29.90 15 CLR None
2018-06-20 05:00 57 48 - 71 210° 5 - 29.91 29.92 15 CLR None
2018-06-20 04:00 55 48 - 76 220° 2 - 29.92 29.92 15 FEW190 None
2018-06-20 03:00 61 48 - 63 240° 6 - 29.92 29.92 15 FEW190 None
2018-06-20 02:00 64 48 - 55 260° 5 - 29.92 29.93 15 FEW180 FEW240 None
2018-06-20 01:00 68 48 - 49 290° 6 - 29.91 29.91 15 FEW190 FEW240 None
2018-06-20 00:00 72 48 76 43 290° 7 - 29.92 29.92 15 FEW240 None
2018-06-19 23:00 73 46 - 38 300° 8 - 29.91 29.91 15 CLR None
2018-06-19 22:00 75 46 - 36 300° 13 - 29.91 29.92 15 FEW250 None
2018-06-19 21:00 75 45 - 33 350° 14 - 29.92 29.92 15 FEW250 None
2018-06-19 20:00 75 45 - 33 320° 15 - 29.93 29.93 15 FEW250 None
2018-06-19 19:00 73 43 - 33 340° 15 24 29.94 29.94 15 FEW250 None
2018-06-19 18:00 72 43 - 35 340° 13 18 29.94 29.94 15 FEW250 None
2018-06-19 17:00 70 45 - 40 360° 14 21 29.96 29.96 15 FEW065 FEW250 None
2018-06-19 16:00 68 43 - 40 350° 13 20 29.97 29.98 15 FEW050 FEW250 None
2018-06-19 15:00 64 45 - 48 330° 15 22 29.99 29.99 15 FEW050 FEW250 None
2018-06-19 14:00 63 46 - 55 310° 14 - 29.99 29.99 15 FEW040 FEW250 None
2018-06-19 13:00 61 45 - 55 320° 15 - 29.98 29.99 15 FEW030 FEW250 None
2018-06-19 12:00 59 46 - 62 330° 15 21 29.97 29.98 15 FEW025 FEW250 None
2018-06-19 11:00 57 48 - 71 330° 14 20 29.95 29.96 15 FEW025 FEW250 None
2018-06-19 10:00 55 46 - 71 330° 10 - 29.93 29.94 15 FEW025 FEW250 None
2018-06-19 09:00 57 46 - 67 340° 18 26 29.90 29.90 15 SCT024 None
2018-06-19 08:00 57 50 - 76 320° 18 25 29.89 29.89 15 BKN024 Pressure rising rapidly

Support USWX by starting your Amazon purchase here.